sensor_id;sensor_type;location;lat;lon;timestamp;pressure;altitude;pressure_sealevel;temperature;humidity
11678;BME280;5895;41.950;24.372;2024-01-11T00:00:12;87268.53;;;-6.89;75.00
11678;BME280;5895;41.950;24.372;2024-01-11T00:02:39;87266.78;;;-6.88;75.19
11678;BME280;5895;41.950;24.372;2024-01-11T00:05:07;87266.78;;;-6.88;75.56
11678;BME280;5895;41.950;24.372;2024-01-11T00:07:35;87266.78;;;-6.88;75.20
11678;BME280;5895;41.950;24.372;2024-01-11T00:10:02;87268.28;;;-6.86;75.77
11678;BME280;5895;41.950;24.372;2024-01-11T00:12:29;87259.69;;;-6.83;76.26
11678;BME280;5895;41.950;24.372;2024-01-11T00:14:57;87255.31;;;-6.81;75.82
11678;BME280;5895;41.950;24.372;2024-01-11T00:17:26;87253.25;;;-6.87;75.81
11678;BME280;5895;41.950;24.372;2024-01-11T00:19:53;87252.69;;;-6.91;75.54
11678;BME280;5895;41.950;24.372;2024-01-11T00:22:20;87255.34;;;-6.93;75.51
11678;BME280;5895;41.950;24.372;2024-01-11T00:24:47;87248.44;;;-6.90;75.78
11678;BME280;5895;41.950;24.372;2024-01-11T00:27:15;87247.31;;;-6.98;74.51
11678;BME280;5895;41.950;24.372;2024-01-11T00:29:42;87242.75;;;-7.04;74.39
11678;BME280;5895;41.950;24.372;2024-01-11T00:32:09;87233.81;;;-7.08;74.54
11678;BME280;5895;41.950;24.372;2024-01-11T00:34:38;87236.59;;;-7.11;74.95
11678;BME280;5895;41.950;24.372;2024-01-11T00:37:05;87235.00;;;-7.12;74.73
11678;BME280;5895;41.950;24.372;2024-01-11T00:39:32;87240.13;;;-7.13;75.03
11678;BME280;5895;41.950;24.372;2024-01-11T00:41:59;87228.59;;;-7.16;75.08
11678;BME280;5895;41.950;24.372;2024-01-11T00:44:26;87228.81;;;-7.19;75.31
11678;BME280;5895;41.950;24.372;2024-01-11T00:46:53;87215.97;;;-7.16;75.60
11678;BME280;5895;41.950;24.372;2024-01-11T00:49:20;87222.88;;;-7.18;75.21
11678;BME280;5895;41.950;24.372;2024-01-11T00:51:49;87218.72;;;-7.19;75.50
11678;BME280;5895;41.950;24.372;2024-01-11T00:54:16;87224.47;;;-7.17;75.74
11678;BME280;5895;41.950;24.372;2024-01-11T00:56:43;87220.22;;;-7.16;76.02
11678;BME280;5895;41.950;24.372;2024-01-11T00:59:10;87218.50;;;-7.16;76.07
11678;BME280;5895;41.950;24.372;2024-01-11T01:01:37;87213.47;;;-7.16;76.05
11678;BME280;5895;41.950;24.372;2024-01-11T01:04:04;87203.94;;;-7.12;76.19
11678;BME280;5895;41.950;24.372;2024-01-11T01:06:31;87204.75;;;-7.12;76.26
11678;BME280;5895;41.950;24.372;2024-01-11T01:08:59;87198.66;;;-7.09;76.95
11678;BME280;5895;41.950;24.372;2024-01-11T01:11:26;87198.66;;;-7.09;76.95
11678;BME280;5895;41.950;24.372;2024-01-11T01:13:53;87202.66;;;-7.07;77.01
11678;BME280;5895;41.950;24.372;2024-01-11T01:16:20;87201.03;;;-7.08;76.56
11678;BME280;5895;41.950;24.372;2024-01-11T01:18:47;87198.66;;;-7.09;76.35
11678;BME280;5895;41.950;24.372;2024-01-11T01:21:14;87193.97;;;-7.14;75.93
11678;BME280;5895;41.950;24.372;2024-01-11T01:23:41;87191.69;;;-7.17;75.78
11678;BME280;5895;41.950;24.372;2024-01-11T01:26:09;87188.59;;;-7.21;75.32
11678;BME280;5895;41.950;24.372;2024-01-11T01:28:36;87187.13;;;-7.23;75.46
11678;BME280;5895;41.950;24.372;2024-01-11T01:31:03;87185.50;;;-7.24;75.74
11678;BME280;5895;41.950;24.372;2024-01-11T01:33:30;87179.56;;;-7.23;76.14
11678;BME280;5895;41.950;24.372;2024-01-11T01:35:57;87182.09;;;-7.23;76.33
11678;BME280;5895;41.950;24.372;2024-01-11T01:38:24;87173.34;;;-7.19;76.58
11678;BME280;5895;41.950;24.372;2024-01-11T01:40:51;87169.22;;;-7.20;76.80
11678;BME280;5895;41.950;24.372;2024-01-11T01:43:19;87167.50;;;-7.20;76.08
11678;BME280;5895;41.950;24.372;2024-01-11T01:45:47;87168.44;;;-7.21;76.36
11678;BME280;5895;41.950;24.372;2024-01-11T01:48:14;87165.13;;;-7.21;76.76
11678;BME280;5895;41.950;24.372;2024-01-11T01:50:41;87161.94;;;-7.23;77.12
11678;BME280;5895;41.950;24.372;2024-01-11T01:53:11;87162.03;;;-7.25;76.71
11678;BME280;5895;41.950;24.372;2024-01-11T01:55:38;87159.19;;;-7.31;75.19
11678;BME280;5895;41.950;24.372;2024-01-11T01:58:05;87156.13;;;-7.35;75.31
11678;BME280;5895;41.950;24.372;2024-01-11T02:00:33;87157.94;;;-7.37;76.01
11678;BME280;5895;41.950;24.372;2024-01-11T02:03:01;87149.56;;;-7.37;76.34
11678;BME280;5895;41.950;24.372;2024-01-11T02:05:28;87147.72;;;-7.35;76.53
11678;BME280;5895;41.950;24.372;2024-01-11T02:07:56;87144.31;;;-7.34;77.00
11678;BME280;5895;41.950;24.372;2024-01-11T02:10:24;87145.00;;;-7.32;77.07
11678;BME280;5895;41.950;24.372;2024-01-11T02:12:51;87139.03;;;-7.31;77.68
11678;BME280;5895;41.950;24.372;2024-01-11T02:15:17;87149.81;;;-7.29;77.38
11678;BME280;5895;41.950;24.372;2024-01-11T02:17:46;87145.66;;;-7.30;77.43
11678;BME280;5895;41.950;24.372;2024-01-11T02:20:13;87140.63;;;-7.30;77.38
11678;BME280;5895;41.950;24.372;2024-01-11T02:22:43;87149.09;;;-7.31;77.19
11678;BME280;5895;41.950;24.372;2024-01-11T02:25:13;87147.28;;;-7.29;77.78
11678;BME280;5895;41.950;24.372;2024-01-11T02:27:46;87145.91;;;-7.33;76.27
11678;BME280;5895;41.950;24.372;2024-01-11T02:30:14;87139.28;;;-7.34;76.94
11678;BME280;5895;41.950;24.372;2024-01-11T02:32:41;87136.06;;;-7.36;76.97
11678;BME280;5895;41.950;24.372;2024-01-11T02:35:10;87139.16;;;-7.33;77.64
11678;BME280;5895;41.950;24.372;2024-01-11T02:37:37;87131.59;;;-7.33;77.71
11678;BME280;5895;41.950;24.372;2024-01-11T02:40:06;87141.31;;;-7.28;77.95
11678;BME280;5895;41.950;24.372;2024-01-11T02:42:35;87135.22;;;-7.26;78.18
11678;BME280;5895;41.950;24.372;2024-01-11T02:45:03;87142.56;;;-7.23;78.81
11678;BME280;5895;41.950;24.372;2024-01-11T02:47:30;87134.63;;;-7.18;78.90
11678;BME280;5895;41.950;24.372;2024-01-11T02:49:57;87137.03;;;-7.16;78.75
11678;BME280;5895;41.950;24.372;2024-01-11T02:52:24;87134.63;;;-7.18;78.30
11678;BME280;5895;41.950;24.372;2024-01-11T02:54:51;87128.22;;;-7.22;77.49
11678;BME280;5895;41.950;24.372;2024-01-11T02:57:18;87128.47;;;-7.25;78.12
11678;BME280;5895;41.950;24.372;2024-01-11T02:59:47;87132.84;;;-7.27;77.39
11678;BME280;5895;41.950;24.372;2024-01-11T03:02:13;87134.34;;;-7.36;76.33
11678;BME280;5895;41.950;24.372;2024-01-11T03:04:41;87127.81;;;-7.38;76.38
11678;BME280;5895;41.950;24.372;2024-01-11T03:07:08;87129.41;;;-7.37;76.63
11678;BME280;5895;41.950;24.372;2024-01-11T03:09:36;87130.47;;;-7.40;76.92
11678;BME280;5895;41.950;24.372;2024-01-11T03:12:04;87132.19;;;-7.40;76.95
11678;BME280;5895;41.950;24.372;2024-01-11T03:14:32;87128.06;;;-7.41;77.35
11678;BME280;5895;41.950;24.372;2024-01-11T03:17:00;87132.28;;;-7.42;76.58
11678;BME280;5895;41.950;24.372;2024-01-11T03:19:27;87130.94;;;-7.46;76.51
11678;BME280;5895;41.950;24.372;2024-01-11T03:21:54;87130.13;;;-7.47;76.91
11678;BME280;5895;41.950;24.372;2024-01-11T03:24:21;87131.75;;;-7.46;76.84
11678;BME280;5895;41.950;24.372;2024-01-11T03:26:49;87126.72;;;-7.46;77.09
11678;BME280;5895;41.950;24.372;2024-01-11T03:29:16;87126.72;;;-7.46;77.65
11678;BME280;5895;41.950;24.372;2024-01-11T03:31:46;87123.00;;;-7.41;78.31
11678;BME280;5895;41.950;24.372;2024-01-11T03:34:14;87123.25;;;-7.44;78.16
11678;BME280;5895;41.950;24.372;2024-01-11T03:36:42;87120.88;;;-7.46;78.59
11678;BME280;5895;41.950;24.372;2024-01-11T03:39:09;87115.94;;;-7.48;78.34
11678;BME280;5895;41.950;24.372;2024-01-11T03:41:36;87111.59;;;-7.46;77.86
11678;BME280;5895;41.950;24.372;2024-01-11T03:44:03;87112.50;;;-7.47;77.69
11678;BME280;5895;41.950;24.372;2024-01-11T03:46:30;87107.44;;;-7.47;78.19
11678;BME280;5895;41.950;24.372;2024-01-11T03:48:57;87109.75;;;-7.43;79.00
11678;BME280;5895;41.950;24.372;2024-01-11T03:51:27;87111.34;;;-7.42;79.42
11678;BME280;5895;41.950;24.372;2024-01-11T03:53:54;87113.38;;;-7.36;79.94
11678;BME280;5895;41.950;24.372;2024-01-11T03:56:21;87108.59;;;-7.39;78.33
11678;BME280;5895;41.950;24.372;2024-01-11T03:58:48;87106.06;;;-7.39;79.12
11678;BME280;5895;41.950;24.372;2024-01-11T04:01:15;87116.81;;;-7.37;79.06
11678;BME280;5895;41.950;24.372;2024-01-11T04:03:42;87113.38;;;-7.36;78.73
11678;BME280;5895;41.950;24.372;2024-01-11T04:06:18;87114.06;;;-7.34;78.50
11678;BME280;5895;41.950;24.372;2024-01-11T04:08:48;87104.78;;;-7.34;78.54
11678;BME280;5895;41.950;24.372;2024-01-11T04:11:15;87104.78;;;-7.34;78.44
11678;BME280;5895;41.950;24.372;2024-01-11T04:13:42;87100.56;;;-7.33;78.66
11678;BME280;5895;41.950;24.372;2024-01-11T04:16:09;87099.50;;;-7.31;79.78
11678;BME280;5895;41.950;24.372;2024-01-11T04:18:36;87096.63;;;-7.26;79.53
11678;BME280;5895;41.950;24.372;2024-01-11T04:21:03;87092.06;;;-7.32;77.52
11678;BME280;5895;41.950;24.372;2024-01-11T04:23:30;87081.53;;;-7.37;77.56
11678;BME280;5895;41.950;24.372;2024-01-11T04:26:02;87091.63;;;-7.37;78.34
11678;BME280;5895;41.950;24.372;2024-01-11T04:28:29;87091.50;;;-7.36;79.22
11678;BME280;5895;41.950;24.372;2024-01-11T04:30:56;87090.47;;;-7.33;79.61
11678;BME280;5895;41.950;24.372;2024-01-11T04:33:23;87098.69;;;-7.31;79.51
11678;BME280;5895;41.950;24.372;2024-01-11T04:35:50;87097.91;;;-7.32;78.80
11678;BME280;5895;41.950;24.372;2024-01-11T04:38:17;87096.31;;;-7.33;78.58
11678;BME280;5895;41.950;24.372;2024-01-11T04:40:44;87094.41;;;-7.40;77.28
11678;BME280;5895;41.950;24.372;2024-01-11T04:43:13;87102.84;;;-7.41;77.87
11678;BME280;5895;41.950;24.372;2024-01-11T04:45:40;87100.47;;;-7.43;78.16
11678;BME280;5895;41.950;24.372;2024-01-11T04:48:07;87097.81;;;-7.41;79.06
11678;BME280;5895;41.950;24.372;2024-01-11T04:50:34;87101.03;;;-7.39;79.41
11678;BME280;5895;41.950;24.372;2024-01-11T04:53:03;87095.72;;;-7.36;79.54
11678;BME280;5895;41.950;24.372;2024-01-11T04:55:30;87100.56;;;-7.33;79.72
11678;BME280;5895;41.950;24.372;2024-01-11T04:57:57;87089.31;;;-7.29;79.94
11678;BME280;5895;41.950;24.372;2024-01-11T05:00:25;87092.38;;;-7.26;79.72
11678;BME280;5895;41.950;24.372;2024-01-11T05:02:52;87089.72;;;-7.24;79.94
11678;BME280;5895;41.950;24.372;2024-01-11T05:05:19;87089.50;;;-7.21;81.32
11678;BME280;5895;41.950;24.372;2024-01-11T05:07:46;87089.28;;;-7.18;80.19
11678;BME280;5895;41.950;24.372;2024-01-11T05:10:16;87089.28;;;-7.18;80.45
11678;BME280;5895;41.950;24.372;2024-01-11T05:12:43;87092.44;;;-7.16;80.67
11678;BME280;5895;41.950;24.372;2024-01-11T05:15:10;87079.72;;;-7.14;80.43
11678;BME280;5895;41.950;24.372;2024-01-11T05:17:39;87079.72;;;-7.14;79.72
11678;BME280;5895;41.950;24.372;2024-01-11T05:20:08;87076.53;;;-7.16;79.82
11678;BME280;5895;41.950;24.372;2024-01-11T05:22:36;87080.78;;;-7.17;79.65
11678;BME280;5895;41.950;24.372;2024-01-11T05:25:04;87073.22;;;-7.17;80.33
11678;BME280;5895;41.950;24.372;2024-01-11T05:27:31;87070.94;;;-7.20;79.25
11678;BME280;5895;41.950;24.372;2024-01-11T05:29:58;87072.78;;;-7.22;79.60
11678;BME280;5895;41.950;24.372;2024-01-11T05:32:25;87067.75;;;-7.22;80.05
11678;BME280;5895;41.950;24.372;2024-01-11T05:34:53;87070.13;;;-7.21;79.87
11678;BME280;5895;41.950;24.372;2024-01-11T05:37:20;87064.28;;;-7.21;79.63
11678;BME280;5895;41.950;24.372;2024-01-11T05:39:48;87062.69;;;-7.22;79.82
11678;BME280;5895;41.950;24.372;2024-01-11T05:42:15;87060.84;;;-7.20;79.92
11678;BME280;5895;41.950;24.372;2024-01-11T05:44:42;87061.63;;;-7.20;79.62
11678;BME280;5895;41.950;24.372;2024-01-11T05:47:09;87062.44;;;-7.19;79.57
11678;BME280;5895;41.950;24.372;2024-01-11T05:49:36;87061.53;;;-7.18;79.81
11678;BME280;5895;41.950;24.372;2024-01-11T05:52:05;87065.66;;;-7.17;80.22
11678;BME280;5895;41.950;24.372;2024-01-11T05:54:32;87059.56;;;-7.14;80.35
11678;BME280;5895;41.950;24.372;2024-01-11T05:56:59;87058.63;;;-7.13;79.79
11678;BME280;5895;41.950;24.372;2024-01-11T05:59:26;87067.81;;;-7.12;80.15
11678;BME280;5895;41.950;24.372;2024-01-11T06:01:53;87060.91;;;-7.10;80.00
11678;BME280;5895;41.950;24.372;2024-01-11T06:04:20;87045.66;;;-7.09;80.06
11678;BME280;5895;41.950;24.372;2024-01-11T06:06:47;87058.25;;;-7.09;79.34
11678;BME280;5895;41.950;24.372;2024-01-11T06:09:15;87057.72;;;-7.12;80.32
11678;BME280;5895;41.950;24.372;2024-01-11T06:11:42;87053.47;;;-7.12;80.75
11678;BME280;5895;41.950;24.372;2024-01-11T06:14:09;87054.16;;;-7.10;80.30
11678;BME280;5895;41.950;24.372;2024-01-11T06:16:36;87054.81;;;-7.08;80.02
11678;BME280;5895;41.950;24.372;2024-01-11T06:19:03;87053.66;;;-7.04;80.13
11678;BME280;5895;41.950;24.372;2024-01-11T06:21:32;87045.84;;;-7.01;80.18
11678;BME280;5895;41.950;24.372;2024-01-11T06:23:59;87045.16;;;-7.03;79.60
11678;BME280;5895;41.950;24.372;2024-01-11T06:26:28;87036.81;;;-7.03;79.36
11678;BME280;5895;41.950;24.372;2024-01-11T06:28:55;87040.81;;;-7.01;78.98
11678;BME280;5895;41.950;24.372;2024-01-11T06:31:23;87043.78;;;-6.96;79.89
11678;BME280;5895;41.950;24.372;2024-01-11T06:33:50;87045.00;;;-6.90;80.50
11678;BME280;5895;41.950;24.372;2024-01-11T06:36:16;87041.97;;;-6.84;80.24
11678;BME280;5895;41.950;24.372;2024-01-11T06:38:43;87039.63;;;-6.76;80.81
11678;BME280;5895;41.950;24.372;2024-01-11T06:41:10;87046.31;;;-6.65;81.81
11678;BME280;5895;41.950;24.372;2024-01-11T06:43:39;87047.97;;;-6.54;82.39
11678;BME280;5895;41.950;24.372;2024-01-11T06:46:06;87046.38;;;-6.46;83.51
11678;BME280;5895;41.950;24.372;2024-01-11T06:48:34;87044.03;;;-6.37;83.17
11678;BME280;5895;41.950;24.372;2024-01-11T06:51:01;87045.41;;;-6.33;81.18
11678;BME280;5895;41.950;24.372;2024-01-11T06:53:28;87045.41;;;-6.33;80.67
11678;BME280;5895;41.950;24.372;2024-01-11T06:55:55;87037.13;;;-6.35;80.21
11678;BME280;5895;41.950;24.372;2024-01-11T06:58:23;87041.25;;;-6.34;80.02
11678;BME280;5895;41.950;24.372;2024-01-11T07:00:51;87039.66;;;-6.35;79.12
11678;BME280;5895;41.950;24.372;2024-01-11T07:03:19;87043.41;;;-6.30;79.93
11678;BME280;5895;41.950;24.372;2024-01-11T07:05:46;87034.78;;;-6.27;79.11
11678;BME280;5895;41.950;24.372;2024-01-11T07:08:13;87038.16;;;-6.17;78.80
11678;BME280;5895;41.950;24.372;2024-01-11T07:10:40;87042.72;;;-5.92;78.57
11678;BME280;5895;41.950;24.372;2024-01-11T07:13:07;87037.81;;;-5.64;78.64
11678;BME280;5895;41.950;24.372;2024-01-11T07:15:36;87039.44;;;-5.44;78.33
11678;BME280;5895;41.950;24.372;2024-01-11T07:18:05;87034.13;;;-5.21;77.83
11678;BME280;5895;41.950;24.372;2024-01-11T07:20:32;87033.31;;;-4.93;78.42
11678;BME280;5895;41.950;24.372;2024-01-11T07:22:59;87031.78;;;-4.66;78.76
11678;BME280;5895;41.950;24.372;2024-01-11T07:25:26;87034.53;;;-4.50;76.99
11678;BME280;5895;41.950;24.372;2024-01-11T07:27:53;87030.72;;;-4.27;77.19
11678;BME280;5895;41.950;24.372;2024-01-11T07:30:20;87031.47;;;-4.07;77.04
11678;BME280;5895;41.950;24.372;2024-01-11T07:32:47;87030.56;;;-3.88;77.78
11678;BME280;5895;41.950;24.372;2024-01-11T07:35:16;87035.81;;;-3.72;75.94
11678;BME280;5895;41.950;24.372;2024-01-11T07:37:43;87034.41;;;-3.56;76.06
11678;BME280;5895;41.950;24.372;2024-01-11T07:40:10;87026.81;;;-3.38;75.91
11678;BME280;5895;41.950;24.372;2024-01-11T07:42:37;87033.53;;;-3.20;74.71
11678;BME280;5895;41.950;24.372;2024-01-11T07:45:05;87040.97;;;-3.00;73.88
11678;BME280;5895;41.950;24.372;2024-01-11T07:47:33;87029.38;;;-2.85;73.31
11678;BME280;5895;41.950;24.372;2024-01-11T07:50:00;87019.19;;;-2.67;73.45
11678;BME280;5895;41.950;24.372;2024-01-11T07:52:30;87018.56;;;-2.43;73.34
11678;BME280;5895;41.950;24.372;2024-01-11T07:54:57;87013.28;;;-2.24;74.21
11678;BME280;5895;41.950;24.372;2024-01-11T07:57:31;87018.16;;;-2.04;73.48
11678;BME280;5895;41.950;24.372;2024-01-11T07:59:58;87013.00;;;-1.87;74.54
11678;BME280;5895;41.950;24.372;2024-01-11T08:02:26;87012.59;;;-1.66;74.33
11678;BME280;5895;41.950;24.372;2024-01-11T08:04:53;87012.66;;;-1.49;73.54
11678;BME280;5895;41.950;24.372;2024-01-11T08:07:20;87005.72;;;-1.31;73.03
11678;BME280;5895;41.950;24.372;2024-01-11T08:09:49;86999.41;;;-1.02;71.81
11678;BME280;5895;41.950;24.372;2024-01-11T08:12:15;87002.28;;;-0.81;70.93
11678;BME280;5895;41.950;24.372;2024-01-11T08:14:43;86996.06;;;-0.62;70.75
11678;BME280;5895;41.950;24.372;2024-01-11T08:17:12;86996.56;;;-0.50;71.21
11678;BME280;5895;41.950;24.372;2024-01-11T08:19:42;86995.91;;;-0.28;71.35
11678;BME280;5895;41.950;24.372;2024-01-11T08:22:09;86999.38;;;-0.05;70.68
11678;BME280;5895;41.950;24.372;2024-01-11T08:24:37;86999.63;;;0.17;70.92
11678;BME280;5895;41.950;24.372;2024-01-11T08:27:05;86996.09;;;0.26;70.28
11678;BME280;5895;41.950;24.372;2024-01-11T08:29:32;86999.22;;;0.44;70.11
11678;BME280;5895;41.950;24.372;2024-01-11T08:32:00;86993.38;;;0.67;70.22
11678;BME280;5895;41.950;24.372;2024-01-11T08:34:29;87002.75;;;0.83;69.74
11678;BME280;5895;41.950;24.372;2024-01-11T08:36:56;86988.13;;;0.99;70.00
11678;BME280;5895;41.950;24.372;2024-01-11T08:39:23;86980.38;;;1.16;69.65
11678;BME280;5895;41.950;24.372;2024-01-11T08:41:50;86975.66;;;1.27;69.40
11678;BME280;5895;41.950;24.372;2024-01-11T08:44:19;86977.50;;;1.56;69.43
11678;BME280;5895;41.950;24.372;2024-01-11T08:46:46;86974.50;;;1.76;68.86
11678;BME280;5895;41.950;24.372;2024-01-11T08:49:14;86971.69;;;2.00;68.17
11678;BME280;5895;41.950;24.372;2024-01-11T08:51:41;86972.06;;;2.27;67.56
11678;BME280;5895;41.950;24.372;2024-01-11T08:54:08;86960.44;;;2.54;67.37
11678;BME280;5895;41.950;24.372;2024-01-11T08:56:36;86956.00;;;2.62;66.81
11678;BME280;5895;41.950;24.372;2024-01-11T08:59:05;86965.63;;;2.75;67.47
11678;BME280;5895;41.950;24.372;2024-01-11T09:01:35;86960.28;;;2.91;66.55
11678;BME280;5895;41.950;24.372;2024-01-11T09:04:03;86954.06;;;3.01;66.77
11678;BME280;5895;41.950;24.372;2024-01-11T09:06:31;86942.81;;;3.16;67.21
11678;BME280;5895;41.950;24.372;2024-01-11T09:09:00;86946.72;;;3.34;66.54
11678;BME280;5895;41.950;24.372;2024-01-11T09:11:27;86943.72;;;3.52;66.92
11678;BME280;5895;41.950;24.372;2024-01-11T09:13:54;86935.00;;;3.67;66.48
11678;BME280;5895;41.950;24.372;2024-01-11T09:16:21;86931.22;;;3.91;66.51
11678;BME280;5895;41.950;24.372;2024-01-11T09:18:50;86931.00;;;4.14;66.49
11678;BME280;5895;41.950;24.372;2024-01-11T09:21:18;86927.97;;;4.32;66.27
11678;BME280;5895;41.950;24.372;2024-01-11T09:23:45;86916.63;;;4.55;66.07
11678;BME280;5895;41.950;24.372;2024-01-11T09:26:12;86912.38;;;4.75;66.03
11678;BME280;5895;41.950;24.372;2024-01-11T09:28:40;86907.69;;;4.92;65.35
11678;BME280;5895;41.950;24.372;2024-01-11T09:31:07;86905.00;;;5.13;65.10
11678;BME280;5895;41.950;24.372;2024-01-11T09:33:34;86901.50;;;5.41;65.13
11678;BME280;5895;41.950;24.372;2024-01-11T09:36:04;86897.56;;;5.58;63.72
11678;BME280;5895;41.950;24.372;2024-01-11T09:38:31;86898.56;;;5.77;64.87
11678;BME280;5895;41.950;24.372;2024-01-11T09:41:06;86882.53;;;5.88;62.65
11678;BME280;5895;41.950;24.372;2024-01-11T09:43:34;86897.22;;;6.07;65.31
11678;BME280;5895;41.950;24.372;2024-01-11T09:46:03;86896.81;;;6.24;65.41
11678;BME280;5895;41.950;24.372;2024-01-11T09:48:32;86876.59;;;6.27;64.04
11678;BME280;5895;41.950;24.372;2024-01-11T09:51:03;86878.34;;;6.33;64.01
11678;BME280;5895;41.950;24.372;2024-01-11T09:53:32;86882.53;;;6.41;65.03
11678;BME280;5895;41.950;24.372;2024-01-11T09:56:00;86870.56;;;6.60;64.51
11678;BME280;5895;41.950;24.372;2024-01-11T09:58:27;86870.53;;;6.73;63.54
11678;BME280;5895;41.950;24.372;2024-01-11T10:00:55;86862.94;;;6.92;64.25
11678;BME280;5895;41.950;24.372;2024-01-11T10:03:25;86855.31;;;7.10;63.40
11678;BME280;5895;41.950;24.372;2024-01-11T10:05:56;86855.00;;;7.31;62.29
11678;BME280;5895;41.950;24.372;2024-01-11T10:08:25;86853.56;;;7.42;62.50
11678;BME280;5895;41.950;24.372;2024-01-11T10:10:52;86852.78;;;7.41;63.01
11678;BME280;5895;41.950;24.372;2024-01-11T10:13:26;86851.50;;;7.51;59.60
11678;BME280;5895;41.950;24.372;2024-01-11T10:16:05;86847.91;;;7.52;55.46
11678;BME280;5895;41.950;24.372;2024-01-11T10:18:32;86837.97;;;7.55;62.21
11678;BME280;5895;41.950;24.372;2024-01-11T10:20:59;86828.00;;;7.65;62.79
11678;BME280;5895;41.950;24.372;2024-01-11T10:23:27;86830.69;;;7.77;63.57
11678;BME280;5895;41.950;24.372;2024-01-11T10:25:56;86818.13;;;8.06;62.85
11678;BME280;5895;41.950;24.372;2024-01-11T10:28:23;86824.03;;;8.38;63.52
11678;BME280;5895;41.950;24.372;2024-01-11T10:30:51;86812.06;;;8.62;62.83
11678;BME280;5895;41.950;24.372;2024-01-11T10:33:20;86813.41;;;8.83;63.00
11678;BME280;5895;41.950;24.372;2024-01-11T10:35:47;86815.97;;;9.01;62.64
11678;BME280;5895;41.950;24.372;2024-01-11T10:38:16;86807.41;;;9.19;61.62
11678;BME280;5895;41.950;24.372;2024-01-11T10:40:45;86816.88;;;9.25;59.77
11678;BME280;5895;41.950;24.372;2024-01-11T10:43:15;86816.63;;;9.15;59.37
11678;BME280;5895;41.950;24.372;2024-01-11T10:45:44;86807.94;;;9.09;61.82
11678;BME280;5895;41.950;24.372;2024-01-11T10:48:14;86811.13;;;8.93;61.54
11678;BME280;5895;41.950;24.372;2024-01-11T10:50:45;86805.59;;;8.71;59.07
11678;BME280;5895;41.950;24.372;2024-01-11T10:53:20;86801.28;;;8.83;59.13
11678;BME280;5895;41.950;24.372;2024-01-11T10:55:55;86793.72;;;9.00;61.78
11678;BME280;5895;41.950;24.372;2024-01-11T10:58:25;86791.16;;;9.12;62.11
11678;BME280;5895;41.950;24.372;2024-01-11T11:00:54;86795.41;;;9.36;63.20
11678;BME280;5895;41.950;24.372;2024-01-11T11:03:22;86785.25;;;9.65;61.59
11678;BME280;5895;41.950;24.372;2024-01-11T11:05:53;86780.66;;;9.67;58.20
11678;BME280;5895;41.950;24.372;2024-01-11T11:08:22;86780.19;;;9.58;61.21
11678;BME280;5895;41.950;24.372;2024-01-11T11:10:51;86776.25;;;9.56;61.04
11678;BME280;5895;41.950;24.372;2024-01-11T11:13:19;86769.28;;;9.68;61.82
11678;BME280;5895;41.950;24.372;2024-01-11T11:15:48;86764.59;;;9.88;62.63
11678;BME280;5895;41.950;24.372;2024-01-11T11:18:15;86764.38;;;10.01;61.93
11678;BME280;5895;41.950;24.372;2024-01-11T11:20:43;86760.50;;;9.92;61.21
11678;BME280;5895;41.950;24.372;2024-01-11T11:23:14;86760.19;;;9.77;59.88
11678;BME280;5895;41.950;24.372;2024-01-11T11:25:44;86758.47;;;9.71;59.23
11678;BME280;5895;41.950;24.372;2024-01-11T11:28:12;86757.09;;;9.57;61.87
11678;BME280;5895;41.950;24.372;2024-01-11T11:30:43;86757.38;;;9.37;57.57
11678;BME280;5895;41.950;24.372;2024-01-11T11:33:20;86748.91;;;9.30;62.28
11678;BME280;5895;41.950;24.372;2024-01-11T11:35:48;86746.44;;;9.35;63.01
11678;BME280;5895;41.950;24.372;2024-01-11T11:38:19;86741.66;;;9.20;59.61
11678;BME280;5895;41.950;24.372;2024-01-11T11:40:47;86736.94;;;9.17;62.60
11678;BME280;5895;41.950;24.372;2024-01-11T11:43:16;86744.84;;;9.22;62.63
11678;BME280;5895;41.950;24.372;2024-01-11T11:45:47;86729.53;;;9.20;59.54
11678;BME280;5895;41.950;24.372;2024-01-11T11:48:48;86730.19;;;9.16;53.75
11678;BME280;5895;41.950;24.372;2024-01-11T11:51:17;86725.78;;;9.05;61.99
11678;BME280;5895;41.950;24.372;2024-01-11T11:53:45;86731.84;;;8.98;62.75
11678;BME280;5895;41.950;24.372;2024-01-11T11:56:12;86726.03;;;9.15;62.98
11678;BME280;5895;41.950;24.372;2024-01-11T11:58:42;86721.34;;;9.35;62.07
11678;BME280;5895;41.950;24.372;2024-01-11T12:01:11;86719.22;;;9.32;60.44
11678;BME280;5895;41.950;24.372;2024-01-11T12:03:40;86712.25;;;9.33;61.56
11678;BME280;5895;41.950;24.372;2024-01-11T12:06:09;86710.88;;;9.30;61.89
11678;BME280;5895;41.950;24.372;2024-01-11T12:08:36;86699.72;;;9.30;62.04
11678;BME280;5895;41.950;24.372;2024-01-11T12:11:05;86704.56;;;9.26;61.96
11678;BME280;5895;41.950;24.372;2024-01-11T12:13:32;86691.53;;;9.33;61.57
11678;BME280;5895;41.950;24.372;2024-01-11T12:15:59;86690.09;;;9.60;62.64
11678;BME280;5895;41.950;24.372;2024-01-11T12:18:28;86687.41;;;9.90;61.76
11678;BME280;5895;41.950;24.372;2024-01-11T12:20:55;86678.03;;;10.13;61.91
11678;BME280;5895;41.950;24.372;2024-01-11T12:23:22;86681.28;;;10.20;60.96
11678;BME280;5895;41.950;24.372;2024-01-11T12:25:50;86684.78;;;10.14;60.79
11678;BME280;5895;41.950;24.372;2024-01-11T12:28:17;86674.78;;;9.94;60.50
11678;BME280;5895;41.950;24.372;2024-01-11T12:30:44;86681.88;;;9.98;60.96
11678;BME280;5895;41.950;24.372;2024-01-11T12:33:12;86671.06;;;10.01;61.07
11678;BME280;5895;41.950;24.372;2024-01-11T12:35:41;86668.91;;;9.98;59.86
11678;BME280;5895;41.950;24.372;2024-01-11T12:38:08;86663.53;;;9.76;60.48
11678;BME280;5895;41.950;24.372;2024-01-11T12:40:36;86666.56;;;9.62;61.51
11678;BME280;5895;41.950;24.372;2024-01-11T12:43:04;86660.81;;;9.71;61.14
11678;BME280;5895;41.950;24.372;2024-01-11T12:45:32;86657.22;;;9.72;60.94
11678;BME280;5895;41.950;24.372;2024-01-11T12:47:59;86658.78;;;9.62;60.30
11678;BME280;5895;41.950;24.372;2024-01-11T12:50:26;86657.75;;;9.51;61.66
11678;BME280;5895;41.950;24.372;2024-01-11T12:53:12;86652.94;;;9.66;51.47
11678;BME280;5895;41.950;24.372;2024-01-11T12:55:43;86646.38;;;9.75;61.40
11678;BME280;5895;41.950;24.372;2024-01-11T12:58:10;86657.75;;;9.86;61.79
11678;BME280;5895;41.950;24.372;2024-01-11T13:00:38;86658.09;;;9.90;61.65
11678;BME280;5895;41.950;24.372;2024-01-11T13:03:05;86647.09;;;9.83;61.47
11678;BME280;5895;41.950;24.372;2024-01-11T13:05:35;86650.22;;;9.61;61.14
11678;BME280;5895;41.950;24.372;2024-01-11T13:08:02;86645.59;;;9.28;62.41